Estación Meteorológica Peña el Pijo (Robertgarden) [ 12/17/17 01:39:09 CET ]

Fecha Hora Presion(HPa) Temp (°C) Humedad % Rocio (°C) Viento ( m/s) Direccion Lluvia 1Hora(mm) Lluvia 24H(mm) LLuvia Total(mm)
2017-Dec-04 01:01:53 1016.800 -3.1 64 -9.0         0.00
2017-Dec-04 02:01:48 1016.900 -3.6 62 -9.9         0.00
2017-Dec-04 03:10:10 1017.300 -5.1 65 -10.7         0.00
2017-Dec-04 04:01:45 1017.400 -5.9 68 -10.9         0.00
2017-Dec-04 05:06:12 1017.200 -5.7 68 -10.7         0.00
2017-Dec-04 06:01:57 1017.300 -6.2 68 -11.2         0.00
2017-Dec-04 07:02:05 1017.900 -6.1 69 -10.9         0.00
2017-Dec-04 08:01:42 1018.400 -6.4 69 -11.2         0.00
2017-Dec-04 09:01:50 1018.900 -6.1 69 -10.9         0.00
2017-Dec-04 10:01:49 1019.500 0.4 62 -6.0         0.00
2017-Dec-04 11:02:03 1019.900 5.3 46 -5.5         0.00
2017-Dec-04 12:01:37 1019.800 7.3 39 -5.8         0.00
2017-Dec-04 13:01:55 1019.200 7.9 34 -7.1         0.00
2017-Dec-04 14:01:46 1018.700 9.8 31 -6.6         0.00
2017-Dec-04 15:01:51 1018.500 10.0 30 -6.8         0.00
2017-Dec-04 16:01:45 1018.500 9.3 33 -6.2         0.00
2017-Dec-04 17:01:46 1018.800 6.2 40 -6.4         0.00
2017-Dec-04 18:01:54 1019.400 3.1 46 -7.5         0.00
2017-Dec-04 19:01:48 1020.200 -0.5 56 -8.1         0.00
2017-Dec-04 20:01:52 1020.900 -1.9 62 -8.1         0.00
2017-Dec-04 21:01:57 1021.500 -2.6 66 -8.1         0.00
2017-Dec-04 22:01:36 1021.600 -2.8 67 -8.1         0.00
2017-Dec-04 23:01:40 1021.400 -3.2 69 -8.1         0.00

Temperatura Máxima:10°    Temperatura Mínima:-6°
Presión Máxima:1021.600 Hpa    Presión Mínima:1016.800 Hpa


Volver